Terminal Aerodrome Forecast
Issued by NWS

Home | Current Version | Previous Version | Text Only | Print | Product List | Glossary On
Versions: 1 2 3 4 5 6 7 8 9 10 11 12 13 14
000
FTUS42 KMLB 211100 RRA
TAFFPR
TAF
KFPR 211141Z 2112/2212 27004KT P6SM SCT005 BKN140
     FM211400 29005KT P6SM SCT020 BKN100
     FM211800 10007KT P6SM VCTS SCT025CB BKN080
      TEMPO 2119/2121 3SM TSRA BKN030CB
     FM220100 VRB02KT P6SM FEW030 BKN120=

USA.gov is the U.S. government's official web portal to all federal, state and local government web resources and services.